Etusivu
METAR-TAF:

METAR-TAF

Lentoasemat :

Cuneo, Italia

Leveyspiiri: 44-32-47N, Pituuspiiri: 007-37-20E, korkeus merenpinnasta: 386 m

Tämänhetkinen sää

Tämä raportti tehtiin 34 minuuttia sitten, kello 21.20 UTC
Tuuli 2 kn lännestä/lounaasta
Lämpötila 20°C
Kosteus 94%
Ilmanpaine 1021 hPa
Näkyvyys 10 km tai enemmän

METAR: LIMZ 072120Z AUTO 25002KT 9999 NCD 20/19 Q1021

Aika: 23:54 (21:54 UTC)

Sääennuste

Tämä raportti tehtiin 2 tuntia ja 38 minuuttia sitten, kello 19.16 UTC
Ennuste voimassa 07. päivästä klo 19 UTC - 08. päivään klo 18 UTC
Tuuli 5 kn eri suunnista
Näkyvyys 10 km tai enemmän
ei pilviä alle 1500 m:ssä eikä cumulonimbus-pilviä

TAF: LIMZ 071916Z 0719/0818 VRB05KT CAVOK

Säähavainnot ja -ennusteet yli 4000 lentoasemalta (METAR- ja TAF-raportit).

Käytössä olevat sääasemat on merkitty karttaan keltaisilla ja punaisilla pisteillä.

Aseta hiiri pisteen päälle nähdäksesi sääaseman nimen.

Klikkaa sitten nähdäksesi säähavainnot ja -ennusteet.

Kartan vaihtaminen: klikkaa mustalla rastilla varustettuja vihreitä pisteitä, niin voit zoomata sisään; viivalla varustettua vihreää pistettä, niin voit zoomata ulos tai vihreitä nuolia, niin pääset viereisille kartoille.


METAR-TAF: